createdAt,value
2023-03-17T00:05:04.145Z,4.20
2023-03-17T00:15:08.100Z,4.10
2023-03-17T00:25:09.340Z,4.15
2023-03-17T00:35:11.537Z,4.13
2023-03-17T00:45:12.841Z,4.13
2023-03-17T00:55:14.535Z,4.29
2023-03-17T01:05:16.233Z,4.29
2023-03-17T01:15:17.674Z,4.32
2023-03-17T01:25:18.954Z,4.27
2023-03-17T01:35:20.303Z,4.28
2023-03-17T01:45:21.564Z,4.25
2023-03-17T01:55:23.022Z,4.07
2023-03-17T02:05:24.315Z,3.95
2023-03-17T02:15:25.750Z,3.92
2023-03-17T02:25:27.059Z,3.81
2023-03-17T02:35:28.316Z,3.72
2023-03-17T02:45:29.593Z,3.56
2023-03-17T02:55:32.455Z,3.42
2023-03-17T03:05:33.704Z,3.23
2023-03-17T03:15:35.941Z,3.02
2023-03-17T03:25:37.963Z,2.93
2023-03-17T03:35:40.056Z,2.72
2023-03-17T03:45:41.474Z,2.59
2023-03-17T03:55:42.673Z,2.43
2023-03-17T04:05:43.889Z,2.35
2023-03-17T04:15:45.417Z,2.21
2023-03-17T04:25:46.900Z,2.15
2023-03-17T04:35:48.234Z,2.02
2023-03-17T04:45:49.632Z,1.88
2023-03-17T04:55:51.510Z,1.86
2023-03-17T05:05:52.742Z,1.73
2023-03-17T05:15:54.135Z,1.63
2023-03-17T05:25:55.421Z,1.60
2023-03-17T05:35:57.355Z,1.60
2023-03-17T05:45:58.665Z,1.51
2023-03-17T05:55:59.933Z,1.60
2023-03-17T06:06:01.786Z,1.67
2023-03-17T06:16:03.406Z,1.80
2023-03-17T06:26:04.656Z,1.93
2023-03-17T06:36:06.449Z,2.26
2023-03-17T06:46:08.325Z,2.65
2023-03-17T06:56:20.151Z,3.11
2023-03-17T07:06:31.010Z,3.55
2023-03-17T07:16:33.102Z,3.73
2023-03-17T07:26:34.417Z,3.88
2023-03-17T07:36:35.859Z,4.06
2023-03-17T07:46:38.126Z,4.28
2023-03-17T07:56:39.350Z,4.67
2023-03-17T08:06:43.469Z,5.05
2023-03-17T08:16:46.839Z,5.37
2023-03-17T08:26:51.150Z,5.52
2023-03-17T08:36:54.658Z,6.01
2023-03-17T08:46:56.927Z,6.97
2023-03-17T08:56:58.574Z,7.64
2023-03-17T09:07:03.714Z,8.56
2023-03-17T09:17:08.167Z,9.11
2023-03-17T09:27:11.747Z,9.76
2023-03-17T09:37:13.709Z,10.36
2023-03-17T09:47:14.987Z,10.96
2023-03-17T09:57:19.417Z,11.54
2023-03-17T10:07:20.737Z,11.82
2023-03-17T10:17:22.238Z,12.29
2023-03-17T10:27:23.537Z,12.57
2023-03-17T10:37:24.943Z,12.69
2023-03-17T10:47:26.222Z,12.97
2023-03-17T10:57:28.078Z,13.34
2023-03-17T11:07:32.581Z,13.62
2023-03-17T11:17:33.883Z,13.94
2023-03-17T11:27:35.145Z,14.07
2023-03-17T11:37:36.386Z,14.16
2023-03-17T11:47:37.659Z,14.28
2023-03-17T11:57:38.861Z,14.39
2023-03-17T12:07:40.189Z,14.68
2023-03-17T12:17:41.723Z,14.84
2023-03-17T12:27:43.010Z,15.17
2023-03-17T12:37:52.760Z,15.38
2023-03-17T12:47:54.026Z,15.32
2023-03-17T12:57:57.668Z,15.46
2023-03-17T13:07:58.998Z,15.53
2023-03-17T13:18:03.453Z,15.73
2023-03-17T13:28:05.549Z,15.71
2023-03-17T13:38:06.931Z,15.55
2023-03-17T13:48:08.166Z,15.44
2023-03-17T13:58:11.635Z,15.29
2023-03-17T14:08:15.410Z,15.33
2023-03-17T14:18:16.752Z,15.30
2023-03-17T14:28:18.044Z,15.21
2023-03-17T14:38:20.119Z,15.28
2023-03-17T14:48:21.579Z,15.19
2023-03-17T14:58:22.890Z,15.10
2023-03-17T15:08:24.280Z,15.10
2023-03-17T15:18:25.779Z,14.99
2023-03-17T15:28:26.994Z,14.92
2023-03-17T15:38:28.202Z,14.80
2023-03-17T15:48:32.666Z,14.74
2023-03-17T15:58:34.932Z,14.71
2023-03-17T16:08:37.544Z,14.43
2023-03-17T16:18:38.766Z,14.16
2023-03-17T16:28:40.101Z,13.99
2023-03-17T16:38:41.338Z,13.83
2023-03-17T16:48:42.693Z,13.62
2023-03-17T16:58:43.920Z,13.35
2023-03-17T17:08:45.248Z,13.09
2023-03-17T17:18:47.443Z,12.89
2023-03-17T17:28:48.730Z,12.62
2023-03-17T17:38:51.693Z,12.28
2023-03-17T17:48:52.937Z,12.13
2023-03-17T17:58:54.269Z,11.93
2023-03-17T18:08:55.534Z,11.84
2023-03-17T18:18:57.818Z,11.64
2023-03-17T18:28:59.044Z,11.42
2023-03-17T18:39:00.314Z,11.32
2023-03-17T18:49:01.642Z,11.21
2023-03-17T18:59:02.975Z,11.07
2023-03-17T19:09:04.237Z,10.92
2023-03-17T19:19:05.636Z,10.79
2023-03-17T19:29:09.679Z,10.67
2023-03-17T19:39:11.418Z,10.53
2023-03-17T19:49:12.714Z,10.52
2023-03-17T19:59:15.292Z,10.60
2023-03-17T20:09:17.005Z,10.57
2023-03-17T20:19:18.667Z,10.42
2023-03-17T20:29:19.936Z,10.43
2023-03-17T20:39:21.361Z,10.35
2023-03-17T20:49:23.377Z,10.09
2023-03-17T20:59:24.914Z,9.97
2023-03-17T21:09:26.161Z,9.85
2023-03-17T21:19:27.690Z,9.77
2023-03-17T21:29:28.892Z,9.66
2023-03-17T21:39:30.237Z,9.66
2023-03-17T21:49:32.176Z,9.64
2023-03-17T21:59:35.600Z,9.56
2023-03-17T22:09:37.499Z,9.43
2023-03-17T22:19:40.225Z,9.33
2023-03-17T22:29:41.469Z,9.23
2023-03-17T22:39:42.691Z,9.18
2023-03-17T22:49:43.917Z,9.18
2023-03-17T22:59:45.146Z,9.18
2023-03-17T23:09:46.490Z,9.15
2023-03-17T23:19:47.915Z,9.10
2023-03-17T23:29:49.180Z,9.17
2023-03-17T23:39:50.411Z,9.30
2023-03-17T23:49:51.660Z,9.48
2023-03-17T23:59:52.872Z,9.50
